Time;durP1;ratioP1;P1;durP2;ratioP2;P2;SDS_P1;SDS_P2;PMS_P1;PMS_P2;Temp;Humidity;BMP_temperature;BMP_pressure;BME280_temperature;BME280_humidity;BME280_pressure;Samples;Min_cycle;Max_cycle;Signal;HPM_P1;HPM_P2
2023/05/28 00:00:58;;;;;;;20.63;7.47;;;12.30;84.90;;;;;;4851302;29;90519;-75
2023/05/28 00:03:24;;;;;;;15.40;6.85;;;12.30;85.60;;;;;;4851472;28;88570;-75
2023/05/28 00:05:50;;;;;;;15.85;7.13;;;12.30;86.60;;;;;;4852161;28;88995;-75
2023/05/28 00:08:16;;;;;;;16.13;7.18;;;12.20;86.90;;;;;;4852481;28;87698;-75
2023/05/28 00:10:42;;;;;;;20.88;7.95;;;12.20;86.80;;;;;;4850634;28;87901;-75
2023/05/28 00:13:08;;;;;;;19.25;8.18;;;12.10;87.40;;;;;;4850147;29;89923;-75
2023/05/28 00:15:35;;;;;;;18.42;6.88;;;12.00;87.50;;;;;;4851497;29;93171;-75
2023/05/28 00:18:01;;;;;;;18.77;8.02;;;12.00;87.40;;;;;;4848807;29;87915;-75
2023/05/28 00:20:26;;;;;;;19.33;7.75;;;11.90;88.40;;;;;;4851739;28;87684;-75
2023/05/28 00:22:52;;;;;;;13.85;6.95;;;11.80;88.40;;;;;;4851713;28;88578;-75
2023/05/28 00:25:18;;;;;;;12.27;6.57;;;11.80;88.30;;;;;;4851131;29;88976;-76
2023/05/28 00:27:43;;;;;;;18.65;8.18;;;11.80;87.90;;;;;;4851816;29;88021;-75
2023/05/28 00:30:09;;;;;;;11.85;7.35;;;11.70;89.00;;;;;;4851789;28;87399;-75
2023/05/28 00:32:35;;;;;;;21.02;8.32;;;11.60;88.00;;;;;;4851728;28;90679;-75
2023/05/28 00:35:00;;;;;;;14.02;7.28;;;11.60;89.10;;;;;;4851506;28;88818;-75
2023/05/28 00:37:26;;;;;;;17.55;8.07;;;11.60;89.20;;;;;;4850636;29;88621;-75
2023/05/28 00:39:51;;;;;;;19.75;8.52;;;11.50;89.50;;;;;;4852193;29;88027;-75
2023/05/28 00:42:17;;;;;;;17.92;7.32;;;11.50;90.10;;;;;;4849405;28;87582;-75
2023/05/28 00:44:43;;;;;;;19.73;8.25;;;11.40;89.90;;;;;;4850991;29;88868;-75
2023/05/28 00:47:10;;;;;;;16.00;7.40;;;11.40;90.30;;;;;;4850397;28;87616;-75
2023/05/28 00:49:36;;;;;;;12.25;7.25;;;11.30;90.20;;;;;;4849607;29;88078;-75
2023/05/28 00:52:03;;;;;;;16.40;7.13;;;11.30;90.40;;;;;;4851297;29;88752;-76
2023/05/28 00:54:30;;;;;;;18.60;8.02;;;11.20;90.40;;;;;;4850546;28;88141;-75
2023/05/28 00:56:57;;;;;;;16.00;8.27;;;11.20;90.20;;;;;;4850832;28;87511;-75
2023/05/28 00:59:24;;;;;;;16.38;7.80;;;11.10;90.90;;;;;;4850833;28;88009;-75
2023/05/28 01:01:50;;;;;;;13.77;7.22;;;11.10;90.40;;;;;;4850041;28;89538;-75
2023/05/28 01:04:16;;;;;;;17.55;7.55;;;11.00;90.40;;;;;;4850233;29;88946;-76
2023/05/28 01:06:43;;;;;;;14.55;7.18;;;11.00;90.50;;;;;;4852803;29;88116;-75
2023/05/28 01:09:09;;;;;;;16.10;7.65;;;11.00;90.60;;;;;;4850488;28;87841;-75
2023/05/28 01:11:36;;;;;;;14.65;8.00;;;11.00;90.70;;;;;;4850033;28;88996;-75
2023/05/28 01:14:03;;;;;;;14.82;7.63;;;10.90;91.00;;;;;;4850786;28;88145;-75
2023/05/28 01:16:29;;;;;;;19.40;8.95;;;10.90;91.00;;;;;;4851711;28;87518;-76
2023/05/28 01:18:56;;;;;;;14.95;7.57;;;10.80;91.50;;;;;;4850586;29;87182;-75
2023/05/28 01:21:27;;;;;;;14.75;8.00;;;10.80;91.20;;;;;;4850249;28;88028;-75
2023/05/28 01:23:54;;;;;;;13.30;7.72;;;10.70;91.20;;;;;;4849894;28;88134;-75
2023/05/28 01:26:21;;;;;;;16.85;8.35;;;10.60;91.60;;;;;;4849421;28;88716;-76
2023/05/28 01:28:48;;;;;;;15.05;7.80;;;10.60;91.20;;;;;;4849957;28;87895;-75
2023/05/28 01:31:15;;;;;;;22.65;8.20;;;10.60;91.70;;;;;;4850872;28;88577;-75
2023/05/28 01:33:42;;;;;;;17.08;8.15;;;10.50;91.90;;;;;;4851191;29;88255;-75
2023/05/28 01:36:21;;;;;;;23.92;8.85;;;10.50;92.10;;;;;;4848605;28;87937;-75
2023/05/28 01:38:49;;;;;;;16.45;8.77;;;10.40;92.70;;;;;;4850340;28;88490;-75
2023/05/28 01:41:16;;;;;;;14.85;9.05;;;10.40;92.50;;;;;;4850489;29;88920;-75
2023/05/28 01:43:43;;;;;;;12.48;7.30;;;10.40;92.90;;;;;;4850625;29;88906;-74
2023/05/28 01:46:09;;;;;;;16.38;8.27;;;10.30;92.30;;;;;;4851290;29;87782;-75
2023/05/28 01:48:36;;;;;;;19.13;8.10;;;10.30;92.10;;;;;;4872720;28;89619;-76
2023/05/28 01:51:02;;;;;;;17.00;7.88;;;10.30;91.90;;;;;;4848044;28;89580;-76
2023/05/28 01:53:28;;;;;;;17.42;8.38;;;10.30;91.90;;;;;;4849307;28;88725;-75
2023/05/28 01:55:55;;;;;;;24.50;8.88;;;10.30;91.80;;;;;;4851809;28;87643;-75
2023/05/28 01:58:22;;;;;;;16.45;8.45;;;10.30;91.60;;;;;;4851393;29;87362;-75
2023/05/28 02:01:16;;;;;;;16.90;9.18;;;10.30;91.40;;;;;;4851144;28;89087;-75
2023/05/28 02:03:41;;;;;;;;;;;10.30;91.90;;;;;;4848466;29;92898;-75
2023/05/28 02:06:07;;;;;;;15.85;8.45;;;10.20;92.30;;;;;;4851273;28;87948;-75
2023/05/28 02:08:33;;;;;;;17.20;7.80;;;10.20;92.00;;;;;;4850494;28;88033;-75
2023/05/28 02:10:58;;;;;;;17.33;8.65;;;10.20;91.80;;;;;;4849910;29;87959;-75
2023/05/28 02:13:24;;;;;;;18.10;8.38;;;10.20;92.20;;;;;;4850965;28;87895;-75
2023/05/28 02:15:50;;;;;;;20.40;8.90;;;10.20;92.00;;;;;;4851137;29;88358;-75
2023/05/28 02:18:15;;;;;;;16.25;8.10;;;10.10;91.90;;;;;;4851341;28;87842;-74
2023/05/28 02:20:42;;;;;;;14.63;8.20;;;10.10;92.10;;;;;;4849605;28;88841;-75
2023/05/28 02:23:08;;;;;;;15.43;7.88;;;10.10;92.60;;;;;;4850161;28;88033;-75
2023/05/28 02:25:33;;;;;;;18.75;8.52;;;10.00;92.70;;;;;;4849329;29;87746;-76
2023/05/28 02:27:59;;;;;;;17.33;8.80;;;10.00;92.50;;;;;;4849195;29;87936;-75
2023/05/28 02:30:25;;;;;;;23.08;10.68;;;10.00;93.00;;;;;;4848284;28;88324;-75
2023/05/28 02:32:51;;;;;;;21.02;9.20;;;10.00;92.90;;;;;;4849607;28;88463;-75
2023/05/28 02:35:18;;;;;;;21.27;10.63;;;10.00;92.90;;;;;;4849805;28;87611;-75
2023/05/28 02:37:43;;;;;;;21.10;10.15;;;10.00;92.90;;;;;;4849389;29;87902;-75
2023/05/28 02:40:10;;;;;;;18.50;9.52;;;10.10;93.00;;;;;;4848251;28;89260;-74
2023/05/28 02:42:36;;;;;;;17.88;9.02;;;10.00;93.10;;;;;;4850315;29;89338;-76
2023/05/28 02:45:01;;;;;;;18.30;9.32;;;10.00;92.60;;;;;;4850381;28;87570;-75
2023/05/28 02:47:27;;;;;;;17.05;8.93;;;9.90;92.90;;;;;;4849777;28;87923;-75
2023/05/28 02:49:52;;;;;;;23.48;9.52;;;9.90;93.00;;;;;;4852275;29;88796;-75
2023/05/28 02:52:18;;;;;;;20.05;9.82;;;9.80;92.70;;;;;;4853757;28;88319;-75
2023/05/28 02:54:44;;;;;;;14.68;8.90;;;9.80;93.00;;;;;;4854290;29;87674;-76
2023/05/28 02:57:09;;;;;;;19.70;8.95;;;9.70;92.90;;;;;;4853843;28;87439;-75
2023/05/28 02:59:35;;;;;;;21.48;9.45;;;9.70;92.80;;;;;;4852446;28;87612;-75
2023/05/28 03:02:01;;;;;;;19.27;9.82;;;9.60;92.80;;;;;;4853330;28;88417;-75
2023/05/28 03:04:26;;;;;;;19.80;10.00;;;9.60;92.50;;;;;;4853694;28;88768;-75
2023/05/28 03:06:52;;;;;;;19.80;9.57;;;9.60;92.40;;;;;;4852437;29;87472;-75
2023/05/28 03:09:17;;;;;;;20.45;10.45;;;9.50;92.50;;;;;;4852178;28;88383;-75
2023/05/28 03:11:43;;;;;;;16.70;8.82;;;9.50;92.80;;;;;;4851691;29;94024;-75
2023/05/28 03:14:08;;;;;;;16.95;9.65;;;9.50;92.50;;;;;;4852381;28;87507;-75
2023/05/28 03:16:36;;;;;;;19.00;10.02;;;9.50;92.60;;;;;;4852236;28;88107;-75
2023/05/28 03:19:02;;;;;;;21.55;9.30;;;9.40;93.00;;;;;;4852367;29;89395;-75
2023/05/28 03:21:28;;;;;;;18.23;9.63;;;9.40;93.00;;;;;;4853816;28;87978;-75
2023/05/28 03:23:54;;;;;;;22.25;10.63;;;9.40;92.90;;;;;;4851721;28;87572;-75
2023/05/28 03:26:19;;;;;;;22.17;10.35;;;9.30;93.00;;;;;;4851497;28;88097;-75
2023/05/28 03:28:45;;;;;;;22.35;10.45;;;9.30;93.00;;;;;;4850412;28;89274;-75
2023/05/28 03:31:12;;;;;;;21.95;10.55;;;9.30;93.30;;;;;;4852289;28;89177;-75
2023/05/28 03:33:37;;;;;;;20.90;9.93;;;9.30;93.40;;;;;;4851838;29;87617;-75
2023/05/28 03:36:03;;;;;;;23.10;10.70;;;9.20;93.50;;;;;;4852091;28;88223;-75
2023/05/28 03:38:29;;;;;;;17.42;9.85;;;9.20;93.60;;;;;;4850850;28;88242;-75
2023/05/28 03:40:55;;;;;;;20.05;10.73;;;9.20;93.20;;;;;;4857778;28;89827;-75
2023/05/28 03:43:20;;;;;;;21.92;10.60;;;9.20;93.50;;;;;;4853052;29;87511;-75
2023/05/28 03:45:46;;;;;;;20.25;8.90;;;9.10;93.50;;;;;;4852878;29;87135;-75
2023/05/28 03:48:12;;;;;;;20.33;9.80;;;9.10;92.90;;;;;;4851066;29;88631;-75
2023/05/28 03:50:37;;;;;;;21.67;11.43;;;9.20;93.00;;;;;;4851406;28;87581;-76
2023/05/28 03:53:03;;;;;;;16.27;9.18;;;9.20;93.00;;;;;;4849009;28;88517;-75
2023/05/28 03:55:28;;;;;;;19.60;10.27;;;9.10;92.90;;;;;;4852202;28;87835;-75
2023/05/28 03:57:54;;;;;;;20.25;10.65;;;9.10;93.20;;;;;;4854360;28;88173;-75
2023/05/28 04:00:20;;;;;;;20.52;11.23;;;9.10;93.60;;;;;;4851716;28;88983;-75
2023/05/28 04:02:46;;;;;;;20.08;9.98;;;9.10;93.70;;;;;;4850521;28;87584;-75
2023/05/28 04:05:11;;;;;;;20.17;10.27;;;9.10;93.60;;;;;;4850148;29;87956;-76
2023/05/28 04:07:37;;;;;;;18.65;10.10;;;9.10;93.40;;;;;;4850772;28;88691;-75
2023/05/28 04:10:03;;;;;;;20.40;10.10;;;9.10;93.80;;;;;;4857162;29;89479;-75
2023/05/28 04:12:28;;;;;;;19.73;10.38;;;9.10;93.60;;;;;;4851904;28;87686;-75
2023/05/28 04:14:55;;;;;;;21.33;10.73;;;9.10;93.80;;;;;;4850922;28;88043;-75
2023/05/28 04:17:21;;;;;;;16.45;9.40;;;9.10;94.00;;;;;;4850775;28;90288;-75
2023/05/28 04:19:46;;;;;;;25.23;10.27;;;9.10;93.80;;;;;;4850982;28;89363;-78
2023/05/28 04:22:12;;;;;;;23.92;10.20;;;9.10;93.50;;;;;;4849980;29;87361;-75
2023/05/28 04:24:38;;;;;;;20.23;10.43;;;9.20;93.10;;;;;;4850045;29;89372;-75
2023/05/28 04:27:03;;;;;;;17.73;9.35;;;9.20;93.70;;;;;;4849244;28;88140;-75
2023/05/28 04:29:30;;;;;;;18.90;9.57;;;9.20;93.30;;;;;;4851573;28;88244;-75
2023/05/28 04:31:57;;;;;;;22.00;11.23;;;9.30;93.30;;;;;;4851154;29;87618;-75
2023/05/28 04:34:24;;;;;;;21.00;12.15;;;9.40;93.80;;;;;;4849766;29;87204;-75
2023/05/28 04:36:51;;;;;;;17.27;10.25;;;9.40;93.90;;;;;;4849636;29;88805;-75
2023/05/28 04:39:18;;;;;;;23.77;11.20;;;9.50;94.00;;;;;;4849993;28;88829;-75
2023/05/28 04:41:45;;;;;;;18.70;9.95;;;9.50;94.20;;;;;;4850342;28;88848;-76
2023/05/28 04:44:15;;;;;;;18.38;11.18;;;9.60;94.00;;;;;;4849105;28;87608;-75
2023/05/28 04:46:43;;;;;;;28.35;12.30;;;9.60;94.30;;;;;;4851486;28;88448;-75
2023/05/28 04:49:10;;;;;;;25.90;12.13;;;9.60;94.00;;;;;;4849704;28;88226;-75
2023/05/28 04:51:36;;;;;;;25.35;12.10;;;9.70;94.10;;;;;;4850999;29;87354;-75
2023/05/28 04:54:02;;;;;;;23.42;10.45;;;9.80;94.20;;;;;;4856352;29;89779;-75
2023/05/28 04:56:28;;;;;;;20.75;11.20;;;9.90;93.60;;;;;;4872379;28;89364;-81
2023/05/28 05:11:57;;;;;;;21.98;11.63;;;10.50;93.30;;;;;;5533953;23;88363;-80
2023/05/28 05:14:23;;;;;;;25.85;12.55;;;10.70;93.20;;;;;;4886203;28;89827;-81
2023/05/28 05:16:49;;;;;;;25.77;12.65;;;10.70;93.10;;;;;;4900007;28;91771;-81
2023/05/28 05:19:15;;;;;;;24.70;12.25;;;10.80;93.30;;;;;;4888014;28;88049;-80
2023/05/28 05:21:40;;;;;;;22.05;11.45;;;11.00;93.10;;;;;;4897198;28;87560;-81
2023/05/28 05:24:06;;;;;;;34.17;13.65;;;11.10;93.00;;;;;;4885991;28;89664;-81
2023/05/28 05:26:31;;;;;;;20.85;11.30;;;11.20;93.00;;;;;;4887131;28;89529;-81
2023/05/28 05:28:57;;;;;;;21.45;11.55;;;11.30;92.40;;;;;;4884111;28;87845;-81
2023/05/28 06:03:10;;;;;;;22.60;12.27;;;13.00;90.00;;;;;;5234172;23;88118;-81
2023/05/28 06:10:47;;;;;;;23.40;12.30;;;13.40;90.00;;;;;;4858264;29;87693;-82
2023/05/28 06:15:49;;;;;;;18.15;10.93;;;13.70;89.30;;;;;;5581787;23;87944;-82
2023/05/28 06:18:15;;;;;;;26.77;12.18;;;13.80;89.80;;;;;;4884455;28;88681;-80
2023/05/28 06:20:42;;;;;;;23.33;11.02;;;13.90;89.60;;;;;;4869190;28;88799;-80
2023/05/28 06:23:09;;;;;;;20.80;11.30;;;14.10;89.40;;;;;;5482625;23;89447;-82
2023/05/28 06:43:43;;;;;;;20.17;11.10;;;15.10;84.60;;;;;;4996493;23;87934;-75
2023/05/28 06:46:09;;;;;;;22.95;11.55;;;15.30;82.50;;;;;;4876997;28;87633;-74
2023/05/28 06:48:35;;;;;;;32.40;11.75;;;15.40;81.10;;;;;;4877086;28;89200;-75
2023/05/28 06:51:00;;;;;;;19.80;11.43;;;15.60;81.90;;;;;;4876918;28;88055;-75
2023/05/28 06:53:26;;;;;;;26.02;12.05;;;15.80;82.30;;;;;;4880320;28;87668;-85
2023/05/28 06:55:52;;;;;;;24.42;12.05;;;15.90;80.80;;;;;;4880916;28;89638;-87
2023/05/28 06:58:17;;;;;;;20.63;11.23;;;16.10;80.20;;;;;;4881728;28;88491;-86
2023/05/28 07:00:46;;;;;;;19.02;10.68;;;16.20;77.30;;;;;;4883442;28;88353;-90
2023/05/28 07:03:11;;;;;;;23.80;11.00;;;16.30;76.50;;;;;;4882276;28;87530;-86
2023/05/28 07:05:37;;;;;;;20.45;11.02;;;16.40;75.30;;;;;;4882420;28;86783;-87
2023/05/28 07:08:03;;;;;;;19.13;10.75;;;16.50;77.10;;;;;;4880386;28;90267;-83
2023/05/28 07:10:29;;;;;;;21.55;10.60;;;16.70;76.00;;;;;;4881782;28;89273;-77
2023/05/28 07:12:54;;;;;;;22.17;10.63;;;16.80;75.70;;;;;;4880824;28;88825;-78
2023/05/28 07:15:21;;;;;;;19.27;10.77;;;17.00;75.70;;;;;;4881300;28;87762;-78
2023/05/28 07:17:47;;;;;;;23.55;10.55;;;17.10;75.40;;;;;;4880370;28;88610;-81
2023/05/28 07:20:13;;;;;;;20.40;9.98;;;17.30;75.40;;;;;;4880259;28;87647;-81
2023/05/28 07:22:39;;;;;;;20.60;9.68;;;17.40;75.20;;;;;;4879729;28;87669;-81
2023/05/28 07:25:06;;;;;;;25.00;10.43;;;17.60;74.60;;;;;;4881908;28;87983;-80
2023/05/28 07:27:32;;;;;;;18.13;11.00;;;17.70;73.60;;;;;;4880663;28;89109;-81
2023/05/28 07:29:57;;;;;;;21.95;11.00;;;18.00;73.00;;;;;;4880475;28;88259;-84
2023/05/28 07:32:23;;;;;;;21.58;10.88;;;18.10;72.00;;;;;;4880371;28;95065;-81
2023/05/28 07:34:49;;;;;;;20.45;10.68;;;18.20;72.80;;;;;;4879948;28;87768;-80
2023/05/28 07:37:15;;;;;;;19.02;10.52;;;18.30;73.50;;;;;;4878887;28;92178;-82
2023/05/28 07:39:40;;;;;;;23.95;10.18;;;18.60;68.60;;;;;;4879703;28;92043;-83
2023/05/28 07:42:06;;;;;;;19.02;9.88;;;18.80;70.10;;;;;;4879106;28;87901;-82
2023/05/28 07:44:33;;;;;;;15.43;9.23;;;18.90;68.60;;;;;;4880452;28;87695;-80
2023/05/28 07:46:58;;;;;;;20.92;9.68;;;19.10;69.10;;;;;;4895268;28;90203;-80
2023/05/28 07:49:24;;;;;;;19.25;10.40;;;19.30;68.70;;;;;;4881059;28;88061;-80
2023/05/28 07:51:49;;;;;;;17.77;10.00;;;19.50;67.30;;;;;;4879763;28;87656;-79
2023/05/28 07:54:15;;;;;;;19.63;10.32;;;19.60;67.70;;;;;;4880486;28;86964;-80
2023/05/28 07:56:41;;;;;;;18.02;9.32;;;19.80;67.20;;;;;;4878720;28;89936;-78
2023/05/28 07:59:07;;;;;;;19.67;9.75;;;20.00;65.90;;;;;;4878387;28;90309;-79
2023/05/28 08:01:33;;;;;;;17.02;8.02;;;20.20;64.80;;;;;;4879844;28;88501;-79
2023/05/28 08:04:00;;;;;;;19.27;9.55;;;20.40;65.30;;;;;;4881154;28;88019;-79
2023/05/28 08:06:26;;;;;;;16.80;9.48;;;20.70;65.10;;;;;;4879081;28;90428;-81
2023/05/28 08:08:52;;;;;;;16.20;7.95;;;20.90;62.80;;;;;;4880466;28;88649;-82
2023/05/28 08:11:17;;;;;;;19.63;9.25;;;21.10;62.90;;;;;;4871040;28;87584;-81
2023/05/28 08:13:43;;;;;;;16.77;7.03;;;21.10;61.40;;;;;;4879446;28;88990;-80
2023/05/28 08:16:12;;;;;;;17.65;7.88;;;21.20;61.40;;;;;;4881005;28;88053;-80
2023/05/28 08:18:39;;;;;;;11.90;7.57;;;21.30;61.70;;;;;;4881754;28;88395;-78
2023/05/28 08:21:06;;;;;;;19.48;9.07;;;21.50;62.40;;;;;;4881568;28;87537;-79
2023/05/28 08:23:34;;;;;;;17.00;8.65;;;21.80;61.30;;;;;;4880037;28;87789;-79
2023/05/28 08:26:03;;;;;;;16.02;8.70;;;22.00;60.80;;;;;;4880264;28;88784;-77
2023/05/28 08:28:29;;;;;;;17.75;8.30;;;22.00;58.80;;;;;;4879567;28;88893;-79
2023/05/28 08:30:56;;;;;;;17.80;8.05;;;22.00;60.00;;;;;;4880734;28;87708;-79
2023/05/28 08:33:22;;;;;;;15.40;8.27;;;22.10;58.80;;;;;;4879449;28;87868;-76
2023/05/28 08:35:48;;;;;;;16.00;7.78;;;22.20;59.40;;;;;;4878119;28;89698;-76
2023/05/28 08:38:13;;;;;;;13.48;6.05;;;22.40;58.90;;;;;;4879899;28;88348;-76
2023/05/28 08:40:41;;;;;;;14.65;7.43;;;22.70;59.10;;;;;;4879137;28;87988;-76
2023/05/28 08:43:07;;;;;;;15.20;6.55;;;22.90;57.70;;;;;;4879488;28;89114;-75
2023/05/28 08:45:35;;;;;;;11.18;6.72;;;23.20;57.80;;;;;;4879387;28;89353;-77
2023/05/28 08:48:00;;;;;;;13.95;6.65;;;23.40;56.20;;;;;;4880007;28;88411;-76
2023/05/28 08:50:29;;;;;;;15.38;6.40;;;23.60;55.40;;;;;;4880383;28;88312;-77
2023/05/28 08:52:58;;;;;;;14.52;5.70;;;23.60;55.60;;;;;;4879960;28;88048;-77
2023/05/28 08:55:24;;;;;;;11.48;5.57;;;23.90;56.20;;;;;;4878561;28;91892;-77
2023/05/28 08:57:51;;;;;;;11.98;5.80;;;24.00;55.10;;;;;;4878898;28;88326;-77
2023/05/28 09:00:17;;;;;;;15.38;6.47;;;24.20;55.30;;;;;;4876923;28;87812;-77
2023/05/28 09:02:44;;;;;;;11.88;6.47;;;24.50;54.90;;;;;;4877948;28;87985;-76
2023/05/28 09:05:09;;;;;;;11.65;6.32;;;24.70;54.60;;;;;;4878602;28;88575;-76
2023/05/28 09:07:35;;;;;;;12.07;5.68;;;24.90;52.00;;;;;;4879314;28;88403;-76
2023/05/28 09:10:03;;;;;;;11.05;5.43;;;25.00;53.70;;;;;;4880637;28;87754;-76
2023/05/28 09:12:28;;;;;;;11.75;4.82;;;25.30;53.10;;;;;;4878974;28;87603;-79
2023/05/28 09:14:54;;;;;;;12.90;5.68;;;25.70;52.90;;;;;;4877188;28;91637;-79
2023/05/28 09:17:34;;;;;;;11.80;5.93;;;25.90;50.70;;;;;;4878024;28;91180;-78
2023/05/28 09:20:04;;;;;;;11.38;5.75;;;26.10;52.60;;;;;;4879254;28;88382;-78
2023/05/28 09:22:31;;;;;;;8.43;4.68;;;26.20;51.70;;;;;;4878851;28;88738;-78
2023/05/28 09:24:56;;;;;;;11.43;5.50;;;26.40;52.10;;;;;;4878582;28;89416;-80
2023/05/28 09:27:23;;;;;;;11.45;6.00;;;26.50;50.60;;;;;;4869522;28;87907;-78
2023/05/28 09:29:49;;;;;;;9.80;5.07;;;26.70;49.10;;;;;;4879032;28;87353;-78
2023/05/28 09:32:22;;;;;;;13.43;5.50;;;26.90;49.40;;;;;;4877952;28;88632;-77
2023/05/28 09:34:50;;;;;;;15.52;5.80;;;27.00;48.60;;;;;;4878357;28;88667;-77
2023/05/28 09:37:17;;;;;;;12.88;4.68;;;26.80;48.20;;;;;;4893156;28;91907;-77
2023/05/28 09:39:43;;;;;;;9.40;4.97;;;26.90;50.00;;;;;;4878208;28;88807;-78
2023/05/28 09:42:10;;;;;;;8.02;4.60;;;27.30;50.40;;;;;;4878895;28;87908;-76
2023/05/28 09:44:38;;;;;;;9.15;4.60;;;27.50;49.00;;;;;;4893218;28;91913;-76
2023/05/28 09:47:18;;;;;;;8.82;4.28;;;27.90;48.20;;;;;;4878224;28;88892;-77
2023/05/28 09:49:47;;;;;;;10.80;3.95;;;28.20;48.60;;;;;;4877407;28;91014;-77
2023/05/28 09:52:20;;;;;;;8.77;3.85;;;28.20;46.20;;;;;;4877286;28;88063;-77
2023/05/28 09:54:55;;;;;;;;;;;28.20;46.80;;;;;;4878829;28;91862;-76
2023/05/28 09:57:26;;;;;;;10.07;4.28;;;28.40;46.30;;;;;;4878662;28;87739;-76
2023/05/28 09:59:56;;;;;;;8.50;3.88;;;28.50;46.30;;;;;;4877054;28;87787;-76
2023/05/28 10:02:34;;;;;;;6.88;3.67;;;28.60;44.00;;;;;;4878063;28;87778;-76
2023/05/28 10:05:02;;;;;;;9.18;3.88;;;28.70;46.50;;;;;;4878279;28;88460;-76
2023/05/28 10:07:29;;;;;;;10.23;4.20;;;29.00;45.50;;;;;;4877438;28;90824;-78
2023/05/28 10:09:57;;;;;;;9.48;3.88;;;29.20;44.60;;;;;;4894620;28;87864;-78
2023/05/28 10:12:28;;;;;;;8.05;4.25;;;29.40;45.50;;;;;;4878505;28;87606;-79
2023/05/28 10:14:54;;;;;;;8.10;4.22;;;29.60;42.00;;;;;;4879232;28;89199;-80
2023/05/28 10:17:21;;;;;;;8.48;3.60;;;29.60;43.10;;;;;;4879024;28;88856;-78
2023/05/28 10:19:47;;;;;;;9.13;4.00;;;29.70;45.10;;;;;;4879237;28;87925;-78
2023/05/28 10:22:14;;;;;;;6.30;3.75;;;30.00;41.90;;;;;;4879330;28;87033;-80
2023/05/28 10:24:40;;;;;;;9.10;4.30;;;30.20;44.50;;;;;;4878539;28;87931;-79
2023/05/28 10:27:09;;;;;;;9.23;4.22;;;30.20;43.10;;;;;;4874453;28;87671;-80
2023/05/28 10:29:40;;;;;;;8.82;3.88;;;30.40;43.60;;;;;;4875877;28;88302;-80
2023/05/28 10:32:07;;;;;;;8.80;3.78;;;30.60;43.60;;;;;;4877023;28;90944;-80
2023/05/28 10:34:35;;;;;;;7.78;3.40;;;30.90;43.40;;;;;;4876650;28;91145;-80
2023/05/28 10:37:09;;;;;;;10.32;3.65;;;31.10;42.20;;;;;;4879764;28;88839;-77
2023/05/28 10:39:48;;;;;;;8.85;3.30;;;31.40;39.50;;;;;;4878029;28;89070;-78
2023/05/28 10:42:18;;;;;;;9.05;3.20;;;31.30;41.40;;;;;;4878339;28;87837;-77
2023/05/28 10:44:59;;;;;;;6.63;3.10;;;31.50;43.00;;;;;;4875632;28;89877;-78
2023/05/28 10:47:35;;;;;;;9.48;3.90;;;31.80;40.70;;;;;;4876564;28;90698;-78
2023/05/28 10:50:10;;;;;;;10.05;3.90;;;31.90;41.10;;;;;;4876495;28;87876;-77
2023/05/28 10:52:36;;;;;;;8.43;3.50;;;31.80;41.60;;;;;;4877487;28;87926;-78
2023/05/28 10:55:04;;;;;;;7.38;3.67;;;31.80;40.60;;;;;;4878437;28;92635;-77
2023/05/28 10:57:47;;;;;;;7.00;3.47;;;31.90;41.20;;;;;;4876197;28;94588;-77
2023/05/28 11:00:23;;;;;;;6.13;3.38;;;31.90;39.20;;;;;;4892364;28;87995;-77
2023/05/28 11:02:51;;;;;;;6.43;3.33;;;31.90;40.20;;;;;;4878167;28;87759;-82
2023/05/28 11:05:22;;;;;;;9.02;4.05;;;32.10;39.50;;;;;;4877670;28;90021;-80
2023/05/28 11:07:48;;;;;;;9.05;3.58;;;32.30;40.20;;;;;;4878216;28;88651;-81
2023/05/28 11:10:15;;;;;;;12.43;3.33;;;32.50;41.10;;;;;;4880462;28;87802;-81
2023/05/28 11:12:42;;;;;;;12.38;3.40;;;32.50;36.60;;;;;;4881772;28;87177;-77
2023/05/28 11:15:10;;;;;;;8.23;3.53;;;32.30;38.40;;;;;;4878389;28;92857;-79
2023/05/28 11:17:37;;;;;;;7.10;3.30;;;32.20;38.30;;;;;;4894050;28;89749;-79
2023/05/28 11:20:03;;;;;;;8.27;3.78;;;32.30;37.30;;;;;;4880579;28;88661;-79
2023/05/28 11:22:35;;;;;;;12.27;3.33;;;32.30;37.90;;;;;;4881920;28;87740;-80
2023/05/28 11:25:07;;;;;;;12.75;3.92;;;32.10;39.20;;;;;;4882780;28;88149;-79
2023/05/28 11:27:35;;;;;;;6.88;3.42;;;32.30;39.80;;;;;;4881362;28;88369;-79
2023/05/28 11:30:03;;;;;;;10.90;3.60;;;32.50;40.20;;;;;;4882029;28;87524;-77
2023/05/28 11:32:31;;;;;;;5.60;3.10;;;32.70;37.60;;;;;;4878160;28;88536;-77
2023/05/28 11:34:57;;;;;;;9.70;3.55;;;33.00;37.80;;;;;;4880041;28;90484;-79
2023/05/28 11:37:25;;;;;;;9.18;3.55;;;32.90;35.40;;;;;;4881654;28;87914;-79
2023/05/28 11:39:52;;;;;;;6.57;3.33;;;32.80;38.30;;;;;;4881568;28;87595;-80
2023/05/28 11:42:19;;;;;;;5.50;2.63;;;32.80;36.10;;;;;;4878479;28;88198;-79
2023/05/28 11:44:45;;;;;;;31.83;4.70;;;32.70;37.80;;;;;;4878551;28;92982;-79
2023/05/28 11:47:11;;;;;;;7.55;3.35;;;32.90;37.00;;;;;;4879512;28;92882;-80
2023/05/28 11:49:37;;;;;;;8.75;3.42;;;33.20;38.60;;;;;;4879830;28;87835;-80
2023/05/28 11:52:03;;;;;;;7.85;3.08;;;33.30;35.00;;;;;;4880136;28;89153;-80
2023/05/28 11:54:29;;;;;;;8.35;3.47;;;33.30;37.20;;;;;;4880752;28;89081;-80
2023/05/28 11:56:55;;;;;;;8.00;3.10;;;33.60;36.40;;;;;;4880648;28;88669;-80
2023/05/28 11:59:25;;;;;;;6.10;3.50;;;34.00;35.70;;;;;;4881144;28;87701;-79
2023/05/28 12:01:51;;;;;;;9.93;3.50;;;34.30;37.40;;;;;;4881692;28;86952;-79
2023/05/28 12:04:22;;;;;;;4.97;3.33;;;34.50;36.80;;;;;;4880267;28;88873;-80
2023/05/28 12:06:52;;;;;;;5.70;3.08;;;34.40;35.00;;;;;;4880800;28;90318;-80
2023/05/28 12:09:18;;;;;;;11.25;3.35;;;34.60;37.40;;;;;;4878783;28;88492;-80
2023/05/28 12:12:01;;;;;;;11.55;4.00;;;34.80;35.70;;;;;;4879862;28;90500;-79
2023/05/28 12:14:26;;;;;;;6.43;3.53;;;35.10;37.10;;;;;;4880728;28;87639;-79
2023/05/28 12:16:53;;;;;;;6.78;3.20;;;35.40;35.00;;;;;;4881347;28;88179;-80
2023/05/28 12:19:19;;;;;;;7.13;3.30;;;35.50;36.10;;;;;;4880185;28;87883;-79
2023/05/28 12:21:45;;;;;;;6.93;3.38;;;35.40;35.50;;;;;;4881536;28;87806;-79
2023/05/28 12:24:15;;;;;;;6.53;3.65;;;35.60;36.50;;;;;;4879995;28;87785;-80
2023/05/28 12:26:43;;;;;;;6.97;3.40;;;35.60;35.40;;;;;;4880975;28;88324;-79
2023/05/28 12:29:09;;;;;;;7.65;3.60;;;35.80;36.40;;;;;;4879590;28;87195;-79
2023/05/28 12:31:35;;;;;;;5.68;3.10;;;35.70;33.50;;;;;;4880716;28;87884;-80
2023/05/28 12:34:01;;;;;;;6.13;3.35;;;35.60;35.90;;;;;;4881143;28;89479;-80
2023/05/28 12:36:27;;;;;;;8.68;3.78;;;35.60;34.80;;;;;;4879897;28;89315;-79
2023/05/28 12:38:52;;;;;;;7.15;3.20;;;35.50;34.80;;;;;;4880383;28;87405;-78
2023/05/28 12:41:18;;;;;;;8.40;3.35;;;35.40;35.30;;;;;;4879672;28;88249;-78
2023/05/28 12:43:44;;;;;;;7.20;3.45;;;35.50;35.00;;;;;;4878233;28;90656;-78
2023/05/28 12:46:10;;;;;;;7.50;3.85;;;35.80;35.50;;;;;;4879700;28;90844;-79
2023/05/28 12:48:36;;;;;;;8.57;3.65;;;35.50;33.30;;;;;;4879288;28;87514;-78
2023/05/28 12:51:03;;;;;;;6.10;3.10;;;35.30;35.00;;;;;;4878970;28;90026;-78
2023/05/28 12:53:29;;;;;;;9.40;3.45;;;35.40;35.50;;;;;;4880529;28;95047;-78
2023/05/28 12:55:54;;;;;;;7.80;3.53;;;35.50;35.00;;;;;;4878367;28;91327;-78
2023/05/28 12:58:21;;;;;;;6.47;3.53;;;35.30;35.10;;;;;;4879979;28;88558;-79
2023/05/28 13:00:46;;;;;;;7.60;3.22;;;35.30;33.00;;;;;;4880379;28;87878;-78
2023/05/28 13:03:12;;;;;;;7.40;3.42;;;35.40;34.10;;;;;;4879704;28;88585;-78
2023/05/28 13:05:38;;;;;;;7.32;3.72;;;35.30;34.30;;;;;;4880342;28;88461;-78
2023/05/28 13:08:04;;;;;;;9.52;3.75;;;35.40;34.70;;;;;;4880267;28;87628;-78
2023/05/28 13:10:29;;;;;;;6.43;3.53;;;35.60;34.40;;;;;;4878911;28;90404;-78
2023/05/28 13:12:55;;;;;;;6.65;3.88;;;35.60;34.20;;;;;;4878889;28;91395;-78
2023/05/28 13:15:21;;;;;;;9.38;3.63;;;35.00;30.70;;;;;;4880299;28;87285;-77
2023/05/28 13:17:46;;;;;;;6.93;3.70;;;34.80;35.60;;;;;;4878234;28;87633;-76
2023/05/28 13:20:13;;;;;;;8.23;3.35;;;35.30;33.00;;;;;;4880140;28;88064;-76
2023/05/28 13:22:40;;;;;;;7.68;3.80;;;35.70;35.60;;;;;;4877376;28;91116;-80
2023/05/28 13:25:07;;;;;;;7.82;3.65;;;36.00;34.80;;;;;;4878663;28;91308;-81
2023/05/28 13:27:34;;;;;;;7.40;3.72;;;35.90;34.50;;;;;;4877986;28;87865;-81
2023/05/28 13:29:59;;;;;;;7.82;3.50;;;35.70;33.60;;;;;;4879758;28;87670;-81
2023/05/28 13:32:26;;;;;;;7.72;3.33;;;35.60;34.90;;;;;;4877276;28;91268;-81
2023/05/28 13:34:52;;;;;;;8.63;3.22;;;35.50;33.50;;;;;;4892270;28;91104;-81
2023/05/28 13:37:17;;;;;;;5.55;3.20;;;34.90;34.40;;;;;;4879723;28;87696;-83
2023/05/28 13:39:43;;;;;;;6.10;3.35;;;34.60;33.40;;;;;;4879871;28;89016;-81
2023/05/28 13:42:09;;;;;;;7.97;3.40;;;34.50;35.70;;;;;;4877880;28;90466;-80
2023/05/28 13:44:35;;;;;;;7.30;3.50;;;34.40;34.70;;;;;;4879483;28;87588;-80
2023/05/28 13:47:01;;;;;;;7.03;3.50;;;34.10;33.20;;;;;;4878045;28;88070;-80
2023/05/28 13:49:28;;;;;;;6.40;3.53;;;34.10;35.80;;;;;;4878906;28;87730;-79